createdAt,value
2023-01-21T00:02:48.433Z,30.17
2023-01-21T00:07:52.885Z,27.20
2023-01-21T00:12:55.936Z,30.73
2023-01-21T00:17:59.031Z,32.43
2023-01-21T00:23:03.883Z,27.07
2023-01-21T00:28:07.019Z,28.23
2023-01-21T00:33:10.150Z,27.37
2023-01-21T00:38:14.666Z,27.40
2023-01-21T00:43:17.904Z,28.67
2023-01-21T00:48:21.634Z,34.67
2023-01-21T00:53:26.398Z,30.20
2023-01-21T00:58:29.777Z,31.50
2023-01-21T01:03:33.898Z,35.50
2023-01-21T01:08:38.518Z,30.50
2023-01-21T01:13:42.112Z,29.40
2023-01-21T01:18:45.232Z,32.20
2023-01-21T01:23:52.184Z,29.63
2023-01-21T01:28:55.389Z,26.77
2023-01-21T01:33:58.877Z,31.77
2023-01-21T01:39:04.035Z,26.70
2023-01-21T01:44:45.523Z,27.27
2023-01-21T01:49:49.897Z,23.03
2023-01-21T01:54:58.619Z,23.27
2023-01-21T02:00:04.224Z,23.90
2023-01-21T02:05:10.955Z,24.90
2023-01-21T02:10:16.577Z,24.87
2023-01-21T02:15:21.569Z,23.80
2023-01-21T02:21:06.672Z,20.60
2023-01-21T02:26:38.855Z,26.10
2023-01-21T02:32:10.854Z,25.97
2023-01-21T02:37:24.061Z,25.83
2023-01-21T02:42:34.291Z,26.17
2023-01-21T02:47:46.279Z,24.83
2023-01-21T02:52:57.958Z,22.37
2023-01-21T02:58:03.953Z,25.97
2023-01-21T03:03:46.864Z,25.67
2023-01-21T03:08:55.695Z,26.57
2023-01-21T03:14:23.230Z,26.53
2023-01-21T03:19:34.938Z,27.03
2023-01-21T03:24:41.662Z,28.03
2023-01-21T03:29:47.791Z,29.93
2023-01-21T03:34:56.242Z,24.90
2023-01-21T03:40:12.462Z,28.33
2023-01-21T03:45:15.865Z,25.37
2023-01-21T03:50:23.823Z,25.17
2023-01-21T03:55:28.389Z,27.57
2023-01-21T04:00:31.737Z,23.33
2023-01-21T04:05:36.104Z,23.30
2023-01-21T04:10:41.039Z,27.37
2023-01-21T04:15:44.335Z,30.13
2023-01-21T04:20:47.804Z,28.63
2023-01-21T04:25:53.063Z,30.33
2023-01-21T04:30:56.916Z,29.27
2023-01-21T04:36:01.046Z,22.87
2023-01-21T04:41:05.839Z,26.27
2023-01-21T04:46:08.931Z,23.07
2023-01-21T04:51:12.137Z,27.33
2023-01-21T04:56:16.916Z,22.07
2023-01-21T05:01:20.075Z,23.70
2023-01-21T05:06:23.346Z,26.77
2023-01-21T05:11:27.890Z,27.33
2023-01-21T05:16:31.308Z,24.50
2023-01-21T05:21:34.744Z,22.93
2023-01-21T05:26:39.551Z,18.40
2023-01-21T05:31:43.603Z,14.70
2023-01-21T05:36:46.915Z,15.10
2023-01-21T05:41:51.611Z,17.40
2023-01-21T05:46:54.821Z,19.80
2023-01-21T05:51:58.165Z,14.83
2023-01-21T05:57:02.813Z,14.23
2023-01-21T06:02:07.043Z,19.00
2023-01-21T06:07:11.378Z,16.57
2023-01-21T06:12:15.814Z,14.20
2023-01-21T06:17:19.043Z,17.00
2023-01-21T06:22:22.377Z,14.93
2023-01-21T06:27:26.854Z,19.20
2023-01-21T06:32:30.138Z,12.97
2023-01-21T06:37:33.234Z,18.17
2023-01-21T06:42:37.873Z,16.13
2023-01-21T06:47:42.789Z,20.83
2023-01-21T06:52:47.859Z,18.13
2023-01-21T06:57:52.394Z,18.67
2023-01-21T07:02:57.959Z,15.97
2023-01-21T07:08:01.747Z,18.00
2023-01-21T07:13:06.636Z,21.40
2023-01-21T07:18:09.875Z,24.27
2023-01-21T07:23:13.100Z,21.70
2023-01-21T07:28:18.156Z,21.03
2023-01-21T07:33:21.447Z,18.47
2023-01-21T07:38:24.864Z,21.60
2023-01-21T07:43:29.400Z,19.93
2023-01-21T07:48:32.523Z,18.23
2023-01-21T07:53:35.939Z,15.10
2023-01-21T07:58:41.091Z,17.87
2023-01-21T08:03:44.463Z,16.27
2023-01-21T08:08:47.700Z,20.77
2023-01-21T08:13:55.852Z,14.67
2023-01-21T08:18:59.263Z,16.20
2023-01-21T08:24:03.694Z,18.37
2023-01-21T08:29:09.017Z,20.83
2023-01-21T08:34:12.374Z,19.20
2023-01-21T08:39:16.745Z,16.07
2023-01-21T08:44:21.240Z,14.73
2023-01-21T08:49:24.440Z,19.93
2023-01-21T08:54:27.971Z,31.80
2023-01-21T08:59:32.647Z,16.40
2023-01-21T09:04:35.909Z,14.80
2023-01-21T09:09:39.239Z,15.13
2023-01-21T09:14:43.986Z,15.43
2023-01-21T09:19:47.160Z,16.73
2023-01-21T09:24:50.402Z,13.63
2023-01-21T09:29:55.628Z,13.47
2023-01-21T09:34:58.738Z,12.33
2023-01-21T09:40:02.159Z,15.40
2023-01-21T09:45:07.847Z,16.77
2023-01-21T09:50:16.486Z,13.80
2023-01-21T09:55:21.487Z,14.50
2023-01-21T10:00:34.968Z,12.60
2023-01-21T10:05:54.579Z,14.20
2023-01-21T10:11:08.828Z,14.97
2023-01-21T10:16:23.163Z,14.13
2023-01-21T10:21:34.401Z,11.27
2023-01-21T10:26:38.146Z,13.47
2023-01-21T10:31:46.797Z,13.57
2023-01-21T10:37:07.157Z,12.70
2023-01-21T10:42:51.394Z,12.03
2023-01-21T10:48:05.620Z,10.83
2023-01-21T10:53:20.378Z,10.63
2023-01-21T10:58:31.662Z,10.43
2023-01-21T11:03:41.632Z,12.13
2023-01-21T11:08:48.512Z,12.67
2023-01-21T11:13:51.860Z,13.03
2023-01-21T11:19:01.642Z,14.10
2023-01-21T11:24:20.608Z,10.63
2023-01-21T11:29:25.691Z,13.70
2023-01-21T11:34:31.191Z,12.80
2023-01-21T11:39:38.311Z,12.17
2023-01-21T11:44:53.193Z,13.77
2023-01-21T11:50:04.310Z,15.70
2023-01-21T11:55:19.942Z,11.93
2023-01-21T12:00:27.146Z,13.30
2023-01-21T12:05:34.735Z,12.83
2023-01-21T12:10:45.571Z,10.30
2023-01-21T12:16:18.003Z,13.20
2023-01-21T12:21:36.360Z,11.43
2023-01-21T12:26:45.519Z,12.87
2023-01-21T12:31:54.636Z,9.90
2023-01-21T12:37:04.734Z,12.27
2023-01-21T12:42:11.810Z,10.90
2023-01-21T12:47:30.243Z,11.93
2023-01-21T12:52:43.113Z,13.60
2023-01-21T12:57:53.966Z,9.47
2023-01-21T13:03:11.379Z,13.07
2023-01-21T13:08:32.733Z,13.17
2023-01-21T13:13:41.827Z,14.03
2023-01-21T13:18:51.662Z,11.77
2023-01-21T13:24:09.820Z,12.47
2023-01-21T13:29:20.028Z,11.53
2023-01-21T13:34:30.927Z,11.73
2023-01-21T13:39:45.498Z,12.93
2023-01-21T13:45:08.248Z,11.93
2023-01-21T13:50:25.393Z,14.83
2023-01-21T13:55:41.319Z,15.00
2023-01-21T14:00:54.203Z,12.47
2023-01-21T14:06:05.715Z,12.07
2023-01-21T14:11:18.677Z,12.93
2023-01-21T14:16:57.647Z,15.90
2023-01-21T14:22:25.052Z,14.53
2023-01-21T14:27:39.120Z,14.43
2023-01-21T14:32:47.232Z,14.77
2023-01-21T14:37:59.022Z,13.63
2023-01-21T14:43:06.754Z,14.47
2023-01-21T14:48:31.942Z,13.30
2023-01-21T14:53:44.719Z,16.17
2023-01-21T14:58:51.409Z,16.00
2023-01-21T15:03:54.780Z,14.17
2023-01-21T15:09:00.546Z,17.63
2023-01-21T15:14:14.408Z,15.87
2023-01-21T15:19:29.865Z,14.57
2023-01-21T15:24:40.200Z,15.63
2023-01-21T15:29:47.595Z,16.13
2023-01-21T15:34:55.300Z,14.53
2023-01-21T15:40:00.947Z,14.17
2023-01-21T15:45:24.828Z,14.90
2023-01-21T15:50:32.286Z,14.27
2023-01-21T15:56:03.281Z,14.70
2023-01-21T16:01:15.779Z,16.03
2023-01-21T16:06:24.015Z,14.40
2023-01-21T16:11:42.232Z,16.50
2023-01-21T16:16:59.567Z,14.23
2023-01-21T16:22:16.871Z,16.00
2023-01-21T16:27:22.411Z,17.70
2023-01-21T16:32:27.324Z,17.30
2023-01-21T16:37:31.924Z,13.83
2023-01-21T16:42:37.576Z,17.40
2023-01-21T16:47:42.351Z,16.80
2023-01-21T16:52:46.200Z,16.47
2023-01-21T16:57:50.849Z,13.90
2023-01-21T17:02:55.711Z,14.57
2023-01-21T17:08:01.866Z,18.57
2023-01-21T17:13:12.275Z,13.43
2023-01-21T17:18:22.875Z,13.73
2023-01-21T17:23:28.595Z,13.57
2023-01-21T17:28:34.260Z,15.00
2023-01-21T17:33:38.960Z,14.83
2023-01-21T17:38:47.624Z,15.40
2023-01-21T17:43:53.425Z,11.70
2023-01-21T17:49:06.142Z,13.53
2023-01-21T17:54:20.768Z,9.93
2023-01-21T17:59:39.290Z,11.03
2023-01-21T18:04:44.625Z,9.43
2023-01-21T18:09:48.012Z,8.90
2023-01-21T18:14:51.113Z,8.33
2023-01-21T18:19:57.795Z,10.53
2023-01-21T18:25:02.992Z,5.97
2023-01-21T18:30:14.210Z,7.80
2023-01-21T18:35:20.685Z,7.93
2023-01-21T18:40:25.965Z,6.23
2023-01-21T18:45:30.110Z,6.23
2023-01-21T18:50:34.830Z,5.43
2023-01-21T18:55:38.078Z,5.87
2023-01-21T19:00:42.044Z,5.50
2023-01-21T19:05:48.376Z,4.63
2023-01-21T19:10:51.753Z,4.57
2023-01-21T19:15:55.052Z,3.63
2023-01-21T19:20:59.581Z,3.47
2023-01-21T19:26:05.631Z,5.60
2023-01-21T19:31:08.926Z,3.43
2023-01-21T19:36:17.609Z,4.43
2023-01-21T19:41:21.182Z,3.30
2023-01-21T19:46:28.928Z,3.63
2023-01-21T19:51:34.305Z,19.10
2023-01-21T19:56:38.109Z,11.00
2023-01-21T20:01:42.860Z,4.60
2023-01-21T20:06:49.123Z,5.50
2023-01-21T20:11:52.446Z,4.40
2023-01-21T20:16:58.278Z,3.37
2023-01-21T20:22:03.223Z,5.00
2023-01-21T20:27:09.362Z,2.10
2023-01-21T20:32:21.920Z,2.97
2023-01-21T20:37:34.102Z,3.40
2023-01-21T20:42:37.555Z,2.87
2023-01-21T20:47:49.722Z,5.13
2023-01-21T20:52:56.596Z,4.83
2023-01-21T20:58:01.051Z,5.67
2023-01-21T21:03:04.627Z,4.57
2023-01-21T21:08:16.219Z,3.63
2023-01-21T21:13:19.928Z,3.30
2023-01-21T21:18:23.367Z,2.33
2023-01-21T21:23:28.279Z,2.80
2023-01-21T21:28:31.466Z,3.10
2023-01-21T21:33:34.504Z,3.50
2023-01-21T21:38:39.658Z,2.30
2023-01-21T21:43:43.698Z,2.60
2023-01-21T21:48:46.893Z,2.77
2023-01-21T21:53:51.839Z,2.53
2023-01-21T21:58:56.205Z,3.27
2023-01-21T22:04:01.644Z,3.47
2023-01-21T22:09:06.417Z,2.50
2023-01-21T22:14:15.780Z,2.17
2023-01-21T22:19:18.979Z,4.07
2023-01-21T22:24:28.103Z,2.60
2023-01-21T22:29:31.855Z,2.13
2023-01-21T22:34:35.276Z,2.90
2023-01-21T22:39:39.747Z,3.33
2023-01-21T22:44:42.797Z,3.00
2023-01-21T22:49:48.183Z,3.53
2023-01-21T22:54:52.732Z,2.63
2023-01-21T22:59:56.044Z,3.07
2023-01-21T23:04:59.713Z,2.40
2023-01-21T23:10:04.413Z,2.77
2023-01-21T23:15:10.660Z,3.30
2023-01-21T23:20:14.533Z,3.97
2023-01-21T23:25:23.469Z,3.70
2023-01-21T23:30:27.038Z,4.20
2023-01-21T23:35:34.202Z,4.10
2023-01-21T23:40:39.132Z,4.10
2023-01-21T23:45:42.286Z,3.53
2023-01-21T23:50:45.596Z,3.30
2023-01-21T23:55:50.040Z,4.50
